createdAt,value
2022-09-13T00:00:58.836Z,3.40
2022-09-13T00:03:31.288Z,3.58
2022-09-13T00:06:15.649Z,3.97
2022-09-13T00:08:50.271Z,3.25
2022-09-13T00:11:26.572Z,3.97
2022-09-13T00:14:00.511Z,3.97
2022-09-13T00:16:33.236Z,3.30
2022-09-13T00:19:05.362Z,3.40
2022-09-13T00:21:37.555Z,3.50
2022-09-13T00:24:09.712Z,3.30
2022-09-13T00:26:41.655Z,3.53
2022-09-13T00:29:13.583Z,3.60
2022-09-13T00:31:45.488Z,3.17
2022-09-13T00:34:20.019Z,3.95
2022-09-13T00:36:51.883Z,3.45
2022-09-13T00:39:23.763Z,4.00
2022-09-13T00:41:55.680Z,3.90
2022-09-13T00:44:50.302Z,3.90
2022-09-13T00:47:42.275Z,4.00
2022-09-13T00:50:37.299Z,3.67
2022-09-13T00:53:19.062Z,4.03
2022-09-13T00:56:09.805Z,3.63
2022-09-13T00:58:52.773Z,3.63
2022-09-13T01:01:40.987Z,3.55
2022-09-13T01:04:22.729Z,3.60
2022-09-13T01:07:02.379Z,3.47
2022-09-13T01:09:41.865Z,3.70
2022-09-13T01:12:33.935Z,3.78
2022-09-13T01:15:25.693Z,3.80
2022-09-13T01:17:58.039Z,3.22
2022-09-13T01:20:48.046Z,3.70
2022-09-13T01:23:49.547Z,3.38
2022-09-13T01:26:49.904Z,3.40
2022-09-13T01:30:03.137Z,3.50
2022-09-13T01:33:18.619Z,3.70
2022-09-13T01:36:04.463Z,3.80
2022-09-13T01:38:57.784Z,3.95
2022-09-13T01:42:07.189Z,3.75
2022-09-13T01:45:37.470Z,3.20
2022-09-13T01:48:40.582Z,2.92
2022-09-13T01:51:32.297Z,3.55
2022-09-13T01:54:28.572Z,3.60
2022-09-13T01:57:43.607Z,3.53
2022-09-13T02:00:23.473Z,3.80
2022-09-13T02:03:07.081Z,4.78
2022-09-13T02:05:45.507Z,4.53
2022-09-13T02:08:40.539Z,4.13
2022-09-13T02:11:22.463Z,3.72
2022-09-13T02:14:15.896Z,4.10
2022-09-13T02:16:57.661Z,3.78
2022-09-13T02:19:57.048Z,3.45
2022-09-13T02:22:37.582Z,3.42
2022-09-13T02:25:25.168Z,3.33
2022-09-13T02:28:03.065Z,4.05
2022-09-13T02:30:43.340Z,4.43
2022-09-13T02:33:28.478Z,4.30
2022-09-13T02:36:17.246Z,4.40
2022-09-13T02:39:06.561Z,3.90
2022-09-13T02:41:54.016Z,4.10
2022-09-13T02:44:41.534Z,4.30
2022-09-13T02:47:41.299Z,4.68
2022-09-13T02:50:53.356Z,3.70
2022-09-13T02:53:50.747Z,4.30
2022-09-13T02:56:52.251Z,4.10
2022-09-13T02:59:36.796Z,4.40
2022-09-13T03:02:15.763Z,4.20
2022-09-13T03:05:02.260Z,4.63
2022-09-13T03:07:34.562Z,4.00
2022-09-13T03:10:09.550Z,3.72
2022-09-13T03:13:01.807Z,4.00
2022-09-13T03:16:12.091Z,3.95
2022-09-13T03:19:22.991Z,4.00
2022-09-13T03:22:29.891Z,4.50
2022-09-13T03:26:06.309Z,4.80
2022-09-13T03:29:08.282Z,4.40
2022-09-13T03:32:06.101Z,4.25
2022-09-13T03:35:22.448Z,4.57
2022-09-13T03:38:41.175Z,4.05
2022-09-13T03:41:26.643Z,4.78
2022-09-13T03:44:08.894Z,4.03
2022-09-13T03:46:47.402Z,4.55
2022-09-13T03:49:24.720Z,4.00
2022-09-13T03:51:58.425Z,3.60
2022-09-13T03:54:32.536Z,4.50
2022-09-13T03:57:23.585Z,3.95
2022-09-13T03:59:57.198Z,4.35
2022-09-13T04:02:29.294Z,4.35
2022-09-13T04:05:01.602Z,4.25
2022-09-13T04:07:33.547Z,3.85
2022-09-13T04:10:06.059Z,3.88
2022-09-13T04:12:40.960Z,4.43
2022-09-13T04:15:12.888Z,4.40
2022-09-13T04:17:44.823Z,4.18
2022-09-13T04:20:16.794Z,4.32
2022-09-13T04:22:56.529Z,4.32
2022-09-13T04:25:28.542Z,4.13
2022-09-13T04:28:00.921Z,4.80
2022-09-13T04:30:33.042Z,5.40
2022-09-13T04:33:04.977Z,4.75
2022-09-13T04:35:37.337Z,5.00
2022-09-13T04:38:10.361Z,4.82
2022-09-13T04:40:42.850Z,4.20
2022-09-13T04:43:22.400Z,4.22
2022-09-13T04:45:54.914Z,4.07
2022-09-13T04:48:30.439Z,4.72
2022-09-13T04:51:06.922Z,4.53
2022-09-13T04:53:39.190Z,4.22
2022-09-13T04:56:12.466Z,4.80
2022-09-13T04:58:46.169Z,4.10
2022-09-13T05:01:18.475Z,4.40
2022-09-13T05:03:53.469Z,4.53
2022-09-13T05:06:25.568Z,4.22
2022-09-13T05:08:59.068Z,5.13
2022-09-13T05:11:31.249Z,4.30
2022-09-13T05:14:03.986Z,4.85
2022-09-13T05:16:36.927Z,3.90
2022-09-13T05:19:11.560Z,4.80
2022-09-13T05:21:44.085Z,3.90
2022-09-13T05:24:16.152Z,4.18
2022-09-13T05:26:48.110Z,5.07
2022-09-13T05:29:20.041Z,5.18
2022-09-13T05:31:52.031Z,5.30
2022-09-13T05:34:24.135Z,4.70
2022-09-13T05:36:56.000Z,5.00
2022-09-13T05:39:54.036Z,6.22
2022-09-13T05:42:19.897Z,5.93
2022-09-13T05:44:51.834Z,5.03
2022-09-13T05:47:23.842Z,5.43
2022-09-13T05:50:09.914Z,5.25
2022-09-13T05:52:42.550Z,5.25
2022-09-13T05:55:14.679Z,5.03
2022-09-13T05:57:46.983Z,4.50
2022-09-13T06:00:19.475Z,5.18
2022-09-13T06:02:51.581Z,5.43
2022-09-13T06:05:23.663Z,5.30
2022-09-13T06:07:55.787Z,5.30
2022-09-13T06:10:27.695Z,5.40
2022-09-13T06:12:59.920Z,4.55
2022-09-13T06:15:32.256Z,5.20
2022-09-13T06:18:04.398Z,5.60
2022-09-13T06:20:36.405Z,4.93
2022-09-13T06:23:08.319Z,4.80
2022-09-13T06:25:40.557Z,5.18
2022-09-13T06:28:12.814Z,4.65
2022-09-13T06:30:44.825Z,5.38
2022-09-13T06:33:18.066Z,5.60
2022-09-13T06:35:49.941Z,5.80
2022-09-13T06:38:22.245Z,5.55
2022-09-13T06:41:11.844Z,5.40
2022-09-13T06:44:06.865Z,4.70
2022-09-13T06:46:40.386Z,5.43
2022-09-13T06:49:12.396Z,4.67
2022-09-13T06:51:44.365Z,4.50
2022-09-13T06:54:16.343Z,4.80
2022-09-13T06:56:49.348Z,4.80
2022-09-13T06:59:21.419Z,3.70
2022-09-13T07:01:53.522Z,4.90
2022-09-13T07:04:25.863Z,4.43
2022-09-13T07:07:02.296Z,4.20
2022-09-13T07:09:34.411Z,4.63
2022-09-13T07:12:07.292Z,3.93
2022-09-13T07:14:39.653Z,5.03
2022-09-13T07:17:31.833Z,4.30
2022-09-13T07:20:06.903Z,4.07
2022-09-13T07:22:39.443Z,4.10
2022-09-13T07:25:11.469Z,4.07
2022-09-13T07:27:43.663Z,4.20
2022-09-13T07:30:15.604Z,4.20
2022-09-13T07:32:47.473Z,4.47
2022-09-13T07:35:19.840Z,4.00
2022-09-13T07:37:52.090Z,4.40
2022-09-13T07:40:24.174Z,4.40
2022-09-13T07:42:56.250Z,3.53
2022-09-13T07:45:28.443Z,4.60
2022-09-13T07:48:00.498Z,3.60
2022-09-13T07:50:32.957Z,3.80
2022-09-13T07:53:04.933Z,3.43
2022-09-13T07:55:36.820Z,3.93
2022-09-13T07:58:08.844Z,4.00
2022-09-13T08:00:40.899Z,3.73
2022-09-13T08:03:12.936Z,3.60
2022-09-13T08:05:44.987Z,3.73
2022-09-13T08:08:17.090Z,3.20
2022-09-13T08:10:51.313Z,3.90
2022-09-13T08:13:24.233Z,3.40
2022-09-13T08:15:56.644Z,3.23
2022-09-13T08:18:32.628Z,3.30
2022-09-13T08:21:04.823Z,3.50
2022-09-13T08:23:36.711Z,3.57
2022-09-13T08:26:09.546Z,4.13
2022-09-13T08:28:43.105Z,3.60
2022-09-13T08:31:18.205Z,4.00
2022-09-13T08:33:51.553Z,3.30
2022-09-13T08:36:31.818Z,3.30
2022-09-13T08:39:04.507Z,3.33
2022-09-13T08:41:42.044Z,3.60
2022-09-13T08:44:49.759Z,3.80
2022-09-13T08:47:41.160Z,4.00
2022-09-13T08:50:27.326Z,4.63
2022-09-13T08:53:29.946Z,3.30
2022-09-13T08:56:23.778Z,3.40
2022-09-13T08:59:05.671Z,4.17
2022-09-13T09:02:34.702Z,4.50
2022-09-13T09:05:30.540Z,3.30
2022-09-13T09:08:49.064Z,3.27
2022-09-13T09:11:33.681Z,3.20
2022-09-13T09:14:32.686Z,2.77
2022-09-13T09:17:22.707Z,3.00
2022-09-13T09:20:18.519Z,3.10
2022-09-13T09:23:19.182Z,3.37
2022-09-13T09:26:13.472Z,3.27
2022-09-13T09:29:00.914Z,3.47
2022-09-13T09:32:11.560Z,4.47
2022-09-13T09:35:33.447Z,4.17
2022-09-13T09:38:25.429Z,3.03
2022-09-13T09:41:13.922Z,2.57
2022-09-13T09:44:19.296Z,2.83
2022-09-13T09:47:04.098Z,2.30
2022-09-13T09:50:15.075Z,2.60
2022-09-13T09:53:18.275Z,2.20
2022-09-13T09:56:19.946Z,2.33
2022-09-13T09:58:56.160Z,2.37
2022-09-13T10:01:34.016Z,2.70
2022-09-13T10:04:11.002Z,2.10
2022-09-13T10:07:30.999Z,2.40
2022-09-13T10:10:26.608Z,2.30
2022-09-13T10:13:17.488Z,2.10
2022-09-13T10:15:55.269Z,2.20
2022-09-13T10:18:47.389Z,2.53
2022-09-13T10:21:19.439Z,2.53
2022-09-13T10:24:21.296Z,2.00
2022-09-13T10:26:53.355Z,2.33
2022-09-13T10:29:28.211Z,2.37
2022-09-13T10:32:08.964Z,2.43
2022-09-13T10:34:45.950Z,2.07
2022-09-13T10:37:24.623Z,2.53
2022-09-13T10:40:01.530Z,1.60
2022-09-13T10:42:56.736Z,1.97
2022-09-13T10:45:31.905Z,1.70
2022-09-13T10:48:15.404Z,1.90
2022-09-13T10:51:04.807Z,1.83
2022-09-13T10:53:41.214Z,1.70
2022-09-13T10:56:25.724Z,1.50
2022-09-13T10:59:30.099Z,1.50
2022-09-13T11:02:25.375Z,1.60
2022-09-13T11:05:32.709Z,1.57
2022-09-13T11:08:55.105Z,1.80
2022-09-13T11:11:54.363Z,1.80
2022-09-13T11:15:12.359Z,2.20
2022-09-13T11:18:02.411Z,1.70
2022-09-13T11:21:08.769Z,1.70
2022-09-13T11:24:30.444Z,1.40
2022-09-13T11:27:40.759Z,1.90
2022-09-13T11:30:29.923Z,1.80
2022-09-13T11:33:36.317Z,1.70
2022-09-13T11:37:04.386Z,1.80
2022-09-13T11:40:26.950Z,1.80
2022-09-13T11:43:26.916Z,1.57
2022-09-13T11:46:21.261Z,1.60
2022-09-13T11:49:21.774Z,1.60
2022-09-13T11:52:36.240Z,1.70
2022-09-13T11:55:32.459Z,1.73
2022-09-13T11:58:14.855Z,1.50
2022-09-13T12:01:01.237Z,1.63
2022-09-13T12:04:11.984Z,1.70
2022-09-13T12:07:06.509Z,1.63
2022-09-13T12:09:55.295Z,1.57
2022-09-13T12:12:35.698Z,1.40
2022-09-13T12:15:16.849Z,1.80
2022-09-13T12:18:24.804Z,1.87
2022-09-13T12:21:09.419Z,1.50
2022-09-13T12:24:16.963Z,1.63
2022-09-13T12:27:16.416Z,1.60
2022-09-13T12:30:19.192Z,1.43
2022-09-13T12:32:58.619Z,1.57
2022-09-13T12:35:39.825Z,1.30
2022-09-13T12:38:43.394Z,1.50
2022-09-13T12:41:56.203Z,1.30
2022-09-13T12:45:26.307Z,9.80
2022-09-13T12:48:44.298Z,1.30
2022-09-13T12:51:59.318Z,1.50
2022-09-13T12:54:51.155Z,1.67
2022-09-13T12:58:10.918Z,1.30
2022-09-13T13:01:10.758Z,1.33
2022-09-13T13:03:57.419Z,1.37
2022-09-13T13:06:58.576Z,1.50
2022-09-13T13:09:45.792Z,1.50
2022-09-13T13:12:37.695Z,1.57
2022-09-13T13:15:17.735Z,1.40
2022-09-13T13:18:22.528Z,1.53
2022-09-13T13:20:59.994Z,1.77
2022-09-13T13:23:39.942Z,1.67
2022-09-13T13:26:21.246Z,1.80
2022-09-13T13:29:24.010Z,2.53
2022-09-13T13:32:04.405Z,1.27
2022-09-13T13:34:50.676Z,1.20
2022-09-13T13:37:29.077Z,1.30
2022-09-13T13:40:25.857Z,1.37
2022-09-13T13:43:32.396Z,1.60
2022-09-13T13:46:10.841Z,1.60
2022-09-13T13:48:56.314Z,1.50
2022-09-13T13:52:10.923Z,1.20
2022-09-13T13:55:25.226Z,1.30
2022-09-13T13:58:04.869Z,1.27
2022-09-13T14:00:59.858Z,1.30
2022-09-13T14:03:36.021Z,1.13
2022-09-13T14:06:38.019Z,1.60
2022-09-13T14:09:33.689Z,1.50
2022-09-13T14:12:25.908Z,1.23
2022-09-13T14:15:48.683Z,1.40
2022-09-13T14:18:58.403Z,1.40
2022-09-13T14:21:46.497Z,1.30
2022-09-13T14:24:46.450Z,1.53
2022-09-13T14:27:35.987Z,1.17
2022-09-13T14:30:30.749Z,1.30
2022-09-13T14:33:06.649Z,1.20
2022-09-13T14:36:22.790Z,1.20
2022-09-13T14:39:00.215Z,1.33
2022-09-13T14:41:34.941Z,1.43
2022-09-13T14:44:27.569Z,1.50
2022-09-13T14:47:15.280Z,1.10
2022-09-13T14:50:08.584Z,1.40
2022-09-13T14:53:18.791Z,1.20
2022-09-13T14:56:05.300Z,1.47
2022-09-13T14:58:54.609Z,1.23
2022-09-13T15:01:35.981Z,1.37
2022-09-13T15:04:08.167Z,1.87
2022-09-13T15:06:41.219Z,1.53
2022-09-13T15:09:26.358Z,1.30
2022-09-13T15:12:01.363Z,1.10
2022-09-13T15:14:37.263Z,1.20
2022-09-13T15:17:12.090Z,1.50
2022-09-13T15:19:44.825Z,1.20
2022-09-13T15:22:23.398Z,1.10
2022-09-13T15:25:02.229Z,1.20
2022-09-13T15:27:47.312Z,1.80
2022-09-13T15:30:27.109Z,1.50
2022-09-13T15:33:13.219Z,1.30
2022-09-13T15:36:12.119Z,1.40
2022-09-13T15:39:01.920Z,1.13
2022-09-13T15:41:56.017Z,1.03
2022-09-13T15:44:31.776Z,1.10
2022-09-13T15:47:16.622Z,1.17
2022-09-13T15:49:51.649Z,1.07
2022-09-13T15:52:24.993Z,1.20
2022-09-13T15:54:56.970Z,1.20
2022-09-13T15:57:29.871Z,1.10
2022-09-13T16:00:06.368Z,1.33
2022-09-13T16:02:46.669Z,1.40
2022-09-13T16:05:19.638Z,1.27
2022-09-13T16:07:58.773Z,1.47
2022-09-13T16:10:34.114Z,1.87
2022-09-13T16:13:06.170Z,1.50
2022-09-13T16:15:38.755Z,1.20
2022-09-13T16:18:10.971Z,1.50
2022-09-13T16:20:45.245Z,1.50
2022-09-13T16:23:17.882Z,1.60
2022-09-13T16:25:56.082Z,1.93
2022-09-13T16:28:29.307Z,1.53
2022-09-13T16:31:02.085Z,1.40
2022-09-13T16:33:34.724Z,1.33
2022-09-13T16:36:11.429Z,1.70
2022-09-13T16:38:43.744Z,1.57
2022-09-13T16:41:15.702Z,1.70
2022-09-13T16:43:47.783Z,1.57
2022-09-13T16:46:20.425Z,1.40
2022-09-13T16:48:54.673Z,1.30
2022-09-13T16:51:27.656Z,1.47
2022-09-13T16:54:00.548Z,1.47
2022-09-13T16:56:32.676Z,1.97
2022-09-13T16:59:04.834Z,1.60
2022-09-13T17:01:37.262Z,1.63
2022-09-13T17:04:11.364Z,2.07
2022-09-13T17:06:43.555Z,1.90
2022-09-13T17:09:16.561Z,1.80
2022-09-13T17:11:48.625Z,2.20
2022-09-13T17:14:21.913Z,1.50
2022-09-13T17:16:55.712Z,1.77
2022-09-13T17:19:33.519Z,1.67
2022-09-13T17:22:08.217Z,1.60
2022-09-13T17:24:42.865Z,1.90
2022-09-13T17:27:15.484Z,1.67
2022-09-13T17:29:47.498Z,2.70
2022-09-13T17:32:20.352Z,1.93
2022-09-13T17:34:52.768Z,1.90
2022-09-13T17:37:25.318Z,1.90
2022-09-13T17:39:57.487Z,2.10
2022-09-13T17:42:29.838Z,2.07
2022-09-13T17:45:04.136Z,1.60
2022-09-13T17:47:36.416Z,1.90
2022-09-13T17:50:08.845Z,2.03
2022-09-13T17:52:40.929Z,1.87
2022-09-13T17:55:13.077Z,1.93
2022-09-13T17:57:49.798Z,2.10
2022-09-13T18:00:24.276Z,2.10
2022-09-13T18:02:57.180Z,2.00
2022-09-13T18:05:29.501Z,2.07
2022-09-13T18:08:01.698Z,1.97
2022-09-13T18:10:53.485Z,2.23
2022-09-13T18:13:33.255Z,2.27
2022-09-13T18:16:09.697Z,2.20
2022-09-13T18:18:46.296Z,2.53
2022-09-13T18:21:21.633Z,1.80
2022-09-13T18:24:01.720Z,2.10
2022-09-13T18:26:35.111Z,2.17
2022-09-13T18:29:12.349Z,1.93
2022-09-13T18:31:44.998Z,2.30
2022-09-13T18:34:17.142Z,2.10
2022-09-13T18:36:49.540Z,2.13
2022-09-13T18:39:23.230Z,1.90
2022-09-13T18:41:56.260Z,2.03
2022-09-13T18:44:34.246Z,2.27
2022-09-13T18:47:08.737Z,2.10
2022-09-13T18:49:44.384Z,3.00
2022-09-13T18:52:16.821Z,2.47
2022-09-13T18:54:49.120Z,2.80
2022-09-13T18:57:21.494Z,2.20
2022-09-13T18:59:53.597Z,2.20
2022-09-13T19:02:25.838Z,2.80
2022-09-13T19:04:58.394Z,2.73
2022-09-13T19:07:30.741Z,2.97
2022-09-13T19:10:02.937Z,2.90
2022-09-13T19:12:35.887Z,2.50
2022-09-13T19:15:09.137Z,2.33
2022-09-13T19:17:45.360Z,2.50
2022-09-13T19:20:19.398Z,2.10
2022-09-13T19:22:54.482Z,2.60
2022-09-13T19:25:30.316Z,2.80
2022-09-13T19:28:04.971Z,2.60
2022-09-13T19:30:38.293Z,3.00
2022-09-13T19:33:10.980Z,2.50
2022-09-13T19:35:43.279Z,2.30
2022-09-13T19:38:15.560Z,2.50
2022-09-13T19:40:57.151Z,2.87
2022-09-13T19:43:33.850Z,2.90
2022-09-13T19:46:08.417Z,2.37
2022-09-13T19:48:48.070Z,2.60
2022-09-13T19:51:34.741Z,2.33
2022-09-13T19:54:13.924Z,2.43
2022-09-13T19:56:47.059Z,2.43
2022-09-13T19:59:24.388Z,2.30
2022-09-13T20:02:00.633Z,2.20
2022-09-13T20:04:32.889Z,2.23
2022-09-13T20:07:06.133Z,2.10
2022-09-13T20:09:46.797Z,2.37
2022-09-13T20:12:19.403Z,2.40
2022-09-13T20:14:54.595Z,2.43
2022-09-13T20:17:26.913Z,2.20
2022-09-13T20:19:59.197Z,2.00
2022-09-13T20:22:31.625Z,2.40
2022-09-13T20:25:05.792Z,2.50
2022-09-13T20:27:39.527Z,2.53
2022-09-13T20:30:15.763Z,2.40
2022-09-13T20:32:58.630Z,2.40
2022-09-13T20:35:32.820Z,2.47
2022-09-13T20:38:08.661Z,2.37
2022-09-13T20:40:41.260Z,2.50
2022-09-13T20:43:15.189Z,2.03
2022-09-13T20:45:58.474Z,2.30
2022-09-13T20:48:32.025Z,1.93
2022-09-13T20:51:08.946Z,2.13
2022-09-13T20:53:43.583Z,2.47
2022-09-13T20:56:18.098Z,2.00
2022-09-13T20:58:57.481Z,2.20
2022-09-13T21:01:31.883Z,2.37
2022-09-13T21:04:05.162Z,1.97
2022-09-13T21:07:00.125Z,2.43
2022-09-13T21:09:52.436Z,2.20
2022-09-13T21:12:24.874Z,2.30
2022-09-13T21:14:59.618Z,2.37
2022-09-13T21:17:31.913Z,2.50
2022-09-13T21:20:04.518Z,2.50
2022-09-13T21:22:37.181Z,2.17
2022-09-13T21:25:10.045Z,2.20
2022-09-13T21:27:45.989Z,2.10
2022-09-13T21:30:18.020Z,2.30
2022-09-13T21:32:50.113Z,2.10
2022-09-13T21:35:22.224Z,2.20
2022-09-13T21:37:54.370Z,2.37
2022-09-13T21:40:26.357Z,2.20
2022-09-13T21:42:58.445Z,2.40
2022-09-13T21:45:31.475Z,2.03
2022-09-13T21:48:03.488Z,2.17
2022-09-13T21:50:35.369Z,2.40
2022-09-13T21:53:07.435Z,2.40
2022-09-13T21:55:39.551Z,2.10
2022-09-13T21:58:11.533Z,2.33
2022-09-13T22:00:43.725Z,2.23
2022-09-13T22:03:15.686Z,2.40
2022-09-13T22:05:55.698Z,2.60
2022-09-13T22:08:31.676Z,2.43
2022-09-13T22:11:11.472Z,2.20
2022-09-13T22:13:55.563Z,2.40
2022-09-13T22:16:40.237Z,2.30
2022-09-13T22:19:23.684Z,2.23
2022-09-13T22:21:59.780Z,2.50
2022-09-13T22:24:32.312Z,2.83
2022-09-13T22:27:08.024Z,2.13
2022-09-13T22:29:40.460Z,2.70
2022-09-13T22:32:12.852Z,2.27
2022-09-13T22:34:44.807Z,2.37
2022-09-13T22:37:17.438Z,2.30
2022-09-13T22:39:49.439Z,2.27
2022-09-13T22:42:21.343Z,2.20
2022-09-13T22:44:53.292Z,2.40
2022-09-13T22:47:33.314Z,2.20
2022-09-13T22:50:05.697Z,2.37
2022-09-13T22:52:37.851Z,2.40
2022-09-13T22:55:09.921Z,2.50
2022-09-13T22:57:42.004Z,2.13
2022-09-13T23:00:14.879Z,2.70
2022-09-13T23:02:47.289Z,2.20
2022-09-13T23:05:19.628Z,2.50
2022-09-13T23:07:52.064Z,2.63
2022-09-13T23:10:24.044Z,2.67
2022-09-13T23:12:57.753Z,2.53
2022-09-13T23:15:29.790Z,3.20
2022-09-13T23:18:03.268Z,2.77
2022-09-13T23:20:37.696Z,2.80
2022-09-13T23:23:11.829Z,2.67
2022-09-13T23:25:43.752Z,2.40
2022-09-13T23:28:15.764Z,2.43
2022-09-13T23:30:48.171Z,2.43
2022-09-13T23:33:21.026Z,2.73
2022-09-13T23:35:57.857Z,3.20
2022-09-13T23:38:29.740Z,2.90
2022-09-13T23:41:02.239Z,2.70
2022-09-13T23:43:34.613Z,3.10
2022-09-13T23:46:07.076Z,2.87
2022-09-13T23:48:39.562Z,3.27
2022-09-13T23:51:16.717Z,3.50
2022-09-13T23:53:52.583Z,3.10
2022-09-13T23:56:31.123Z,3.40
2022-09-13T23:59:05.126Z,3.60
